Time;durP1;ratioP1;P1;durP2;ratioP2;P2;SDS_P1;SDS_P2;PMS_P1;PMS_P2;Temp;Humidity;BMP_temperature;BMP_pressure;BME280_temperature;BME280_humidity;BME280_pressure;Samples;Min_cycle;Max_cycle;Signal;HPM_P1;HPM_P2
2022/03/15 05:31:19;;;;;;;;;10.50;10.50;;;;;13.10;67.05;101832.63;5056836;27;45586;-75
2022/03/15 05:33:46;;;;;;;;;10.00;8.25;;;;;13.00;67.27;101817.75;5053521;28;45280;-75
2022/03/15 05:36:11;;;;;;;;;11.00;8.50;;;;;13.13;67.41;101835.16;5054023;28;46122;-74
2022/03/15 05:38:37;;;;;;;;;6.25;6.25;;;;;13.13;67.28;101843.25;5053589;28;45555;-76
2022/03/15 05:41:04;;;;;;;;;10.50;10.25;;;;;13.14;67.32;101840.53;5053969;28;45474;-76
2022/03/15 05:43:30;;;;;;;;;11.00;8.25;;;;;13.15;67.56;101836.03;5053421;28;45483;-77
2022/03/15 05:45:55;;;;;;;;;12.25;12.25;;;;;13.13;67.76;101835.16;5053400;28;45325;-74
2022/03/15 05:48:20;;;;;;;;;11.25;11.25;;;;;13.04;68.10;101816.69;5053228;28;45385;-75
2022/03/15 05:50:46;;;;;;;;;11.00;11.00;;;;;13.09;67.87;101842.50;5053389;28;45953;-75
2022/03/15 05:53:12;;;;;;;;;14.00;12.25;;;;;13.06;68.13;101834.53;5053141;28;45588;-76
2022/03/15 05:55:37;;;;;;;;;11.75;11.00;;;;;13.14;67.25;101853.13;5053592;28;45532;-75
2022/03/15 05:58:03;;;;;;;;;12.00;12.00;;;;;13.15;68.04;101847.69;5053153;28;45362;-76
2022/03/15 06:00:30;;;;;;;;;11.25;11.25;;;;;13.16;68.66;101849.44;5053267;28;45338;-75
2022/03/15 06:02:55;;;;;;;;;11.25;10.50;;;;;13.18;68.07;101847.53;5052753;28;45293;-75
2022/03/15 06:05:21;;;;;;;;;9.50;9.00;;;;;13.20;67.95;101847.47;5052742;28;46010;-75
2022/03/15 06:07:49;;;;;;;;;11.50;9.50;;;;;13.23;68.21;101850.06;5053409;28;45550;-76
2022/03/15 06:10:17;;;;;;;;;11.50;9.25;;;;;13.27;68.59;101855.25;5060711;28;45319;-76
2022/03/15 06:12:43;;;;;;;;;12.75;10.75;;;;;13.21;68.70;101836.66;5059621;28;45295;-78
2022/03/15 06:15:09;;;;;;;;;10.50;9.50;;;;;13.26;68.10;101849.97;5058287;28;45448;-74
2022/03/15 06:17:56;;;;;;;;;11.25;11.25;;;;;13.25;68.51;101850.88;5058872;28;45316;-76
2022/03/15 06:20:23;;;;;;;;;14.75;10.50;;;;;13.24;68.88;101854.50;5058879;28;45374;-75
2022/03/15 06:22:49;;;;;;;;;12.00;10.50;;;;;13.22;69.09;101853.69;5058418;28;45382;-74
2022/03/15 06:25:14;;;;;;;;;10.50;10.50;;;;;13.20;68.73;101856.44;5056736;28;45453;-76
2022/03/15 06:27:40;;;;;;;;;10.75;10.75;;;;;13.21;69.49;101851.94;5057358;28;45222;-76
2022/03/15 06:30:08;;;;;;;;;18.25;13.25;;;;;13.12;69.29;101834.28;5057421;28;45409;-75
2022/03/15 06:32:34;;;;;;;;;11.50;11.50;;;;;13.20;69.49;101861.81;5056908;28;45275;-75
2022/03/15 06:35:01;;;;;;;;;11.75;11.75;;;;;13.14;69.55;101848.59;5056568;28;46115;-77
2022/03/15 06:37:26;;;;;;;;;11.25;11.25;;;;;13.18;69.35;101849.38;5056206;28;45402;-74
2022/03/15 06:39:51;;;;;;;;;11.00;9.25;;;;;13.05;69.07;101835.47;5056091;28;45429;-74
2022/03/15 06:42:17;;;;;;;;;15.00;14.50;;;;;13.09;68.88;101837.13;5034636;28;46114;-73
2022/03/15 06:44:43;;;;;;;;;13.25;13.25;;;;;13.15;69.86;101853.06;5050319;28;46149;-72
2022/03/15 06:47:09;;;;;;;;;13.00;13.00;;;;;13.14;69.77;101845.91;5056076;28;45322;-75
2022/03/15 06:49:35;;;;;;;;;13.25;12.75;;;;;13.14;69.69;101845.91;5056584;28;45255;-76
2022/03/15 06:52:01;;;;;;;;;12.75;12.75;;;;;13.19;69.97;101851.09;5056385;28;45353;-75
2022/03/15 06:54:26;;;;;;;;;15.50;14.25;;;;;13.23;70.35;101850.06;5055762;28;45548;-75
2022/03/15 06:56:53;;;;;;;;;16.25;15.50;;;;;13.28;69.51;101861.53;5056941;28;45242;-72
2022/03/15 06:59:19;;;;;;;;;13.50;12.00;;;;;13.24;69.66;101824.91;5056428;28;45251;-79
2022/03/15 07:01:45;;;;;;;;;14.25;13.25;;;;;13.34;68.94;101838.88;5056023;28;45208;-72
2022/03/15 07:04:10;;;;;;;;;19.25;17.75;;;;;13.36;69.04;101836.97;5054915;28;45960;-73
2022/03/15 07:06:36;;;;;;;;;16.00;14.75;;;;;13.38;69.33;101835.97;5055418;28;45434;-73
2022/03/15 07:09:01;;;;;;;;;18.75;14.25;;;;;13.45;69.31;101847.38;5035353;28;45375;-74
2022/03/15 07:11:27;;;;;;;;;13.75;12.50;;;;;13.47;69.56;101842.81;5055655;28;45688;-73
2022/03/15 07:13:52;;;;;;;;;17.75;15.25;;;;;13.53;68.60;101847.94;5055536;28;46221;-73
2022/03/15 07:16:17;;;;;;;;;20.50;20.50;;;;;13.47;68.43;101841.00;5055254;28;45388;-73
2022/03/15 07:18:43;;;;;;;;;19.00;17.25;;;;;13.54;68.99;101849.72;5055219;28;45336;-73
2022/03/15 07:21:08;;;;;;;;;18.75;17.00;;;;;13.59;69.26;101850.41;5054563;28;45246;-71
2022/03/15 07:23:33;;;;;;;;;26.50;22.25;;;;;13.58;68.94;101852.22;5055336;28;45459;-72
2022/03/15 07:25:59;;;;;;;;;22.75;20.00;;;;;13.60;68.44;101849.47;5055455;28;45256;-73
2022/03/15 07:28:24;;;;;;;;;18.25;17.25;;;;;13.64;68.43;101851.09;5055422;28;45322;-73
2022/03/15 07:30:50;;;;;;;;;19.00;19.00;;;;;13.62;68.41;101861.03;5055306;28;45267;-73
2022/03/15 07:33:15;;;;;;;;;22.00;18.75;;;;;13.62;68.63;101861.03;5055080;28;45502;-73
2022/03/15 07:35:40;;;;;;;;;22.00;17.50;;;;;13.58;69.05;101857.63;5055217;28;45508;-72
2022/03/15 07:38:07;;;;;;;;;19.75;19.00;;;;;13.61;68.47;101868.25;5055224;28;45292;-71
2022/03/15 07:40:33;;;;;;;;;22.00;18.25;;;;;13.63;68.76;101865.50;5053338;28;45549;-72
2022/03/15 07:42:58;;;;;;;;;22.00;19.00;;;;;13.56;68.49;101837.94;5053036;28;46014;-75
2022/03/15 07:45:24;;;;;;;;;25.25;21.50;;;;;13.63;68.94;101835.84;5028749;28;45868;-73
2022/03/15 07:47:50;;;;;;;;;22.50;20.75;;;;;13.63;68.31;101834.03;5053345;28;45508;-74
2022/03/15 07:50:16;;;;;;;;;19.50;19.50;;;;;13.62;68.44;101845.75;5041276;28;45320;-74
2022/03/15 07:52:42;;;;;;;;;21.00;19.25;;;;;13.58;68.35;101835.19;5052496;28;45499;-72
2022/03/15 07:55:08;;;;;;;;;19.00;17.75;;;;;13.64;68.56;101843.00;5051933;28;45472;-73
2022/03/15 07:57:34;;;;;;;;;17.75;16.75;;;;;13.59;68.64;101829.75;5054052;28;45482;-72
2022/03/15 07:59:59;;;;;;;;;20.50;20.50;;;;;13.55;68.65;101830.78;5051933;28;46124;-73
2022/03/15 08:02:25;;;;;;;;;22.00;19.00;;;;;13.63;69.04;101839.44;5035378;28;45946;-73
2022/03/15 08:04:53;;;;;;;;;18.25;17.75;;;;;13.58;69.52;101825.28;5054647;28;45270;-74
2022/03/15 08:07:20;;;;;;;;;22.25;20.75;;;;;13.59;69.47;101827.03;5052959;28;45446;-74
2022/03/15 08:09:45;;;;;;;;;25.50;20.25;;;;;13.59;69.30;101836.94;5054617;28;45457;-74
2022/03/15 08:12:10;;;;;;;;;21.00;17.75;;;;;13.60;69.28;101844.09;5049611;28;45412;-73
2022/03/15 08:14:36;;;;;;;;;22.25;22.25;;;;;13.60;69.03;101844.09;5051126;28;45405;-73
2022/03/15 08:17:01;;;;;;;;;19.75;17.50;;;;;13.59;69.03;101843.22;5049815;28;47182;-73
2022/03/15 08:19:26;;;;;;;;;18.50;18.25;;;;;13.58;69.54;101833.38;5054399;28;45511;-73
2022/03/15 08:21:53;;;;;;;;;20.00;17.50;;;;;13.61;69.01;101835.91;5053964;28;46089;-75
2022/03/15 08:24:19;;;;;;;;;20.50;18.50;;;;;13.61;68.68;101830.53;5054553;28;45379;-72
2022/03/15 08:26:45;;;;;;;;;20.00;17.50;;;;;13.63;68.96;101830.47;5054480;28;45392;-73
2022/03/15 08:29:10;;;;;;;;;20.25;17.25;;;;;13.65;69.05;101820.50;5053834;28;45358;-73
2022/03/15 08:31:36;;;;;;;;;20.00;16.75;;;;;13.63;68.83;101817.00;5054134;28;45358;-74
2022/03/15 08:34:01;;;;;;;;;17.00;16.25;;;;;13.68;68.52;101833.88;5052297;28;45350;-73
2022/03/15 08:36:26;;;;;;;;;20.50;18.75;;;;;13.68;68.48;101838.38;5054283;28;45279;-72
2022/03/15 08:38:52;;;;;;;;;19.00;16.75;;;;;13.62;68.06;101831.41;5032598;28;47254;-76
2022/03/15 08:41:17;;;;;;;;;21.25;16.50;;;;;13.66;68.50;101845.66;5047129;28;46133;-75
2022/03/15 08:43:43;;;;;;;;;17.00;14.00;;;;;13.63;68.42;101854.72;5054133;28;45247;-73
2022/03/15 08:46:08;;;;;;;;;17.00;15.00;;;;;13.61;69.37;101853.91;5053797;28;45413;-73
2022/03/15 08:48:34;;;;;;;;;15.25;14.00;;;;;13.58;69.15;101854.94;5053724;28;45311;-72
2022/03/15 08:51:00;;;;;;;;;20.00;17.25;;;;;13.58;68.41;101849.53;5053875;28;46042;-74
2022/03/15 08:53:27;;;;;;;;;18.50;17.75;;;;;13.58;68.64;101856.75;5035993;28;45312;-72
2022/03/15 08:55:52;;;;;;;;;21.00;18.75;;;;;13.57;69.09;101863.06;5054056;28;45445;-73
2022/03/15 08:58:17;;;;;;;;;18.75;17.25;;;;;13.44;69.72;101867.22;5054172;28;45606;-74
2022/03/15 09:00:43;;;;;;;;;16.75;16.50;;;;;13.38;69.74;101865.59;5053776;28;45495;-73
2022/03/15 09:03:09;;;;;;;;;20.00;16.50;;;;;13.33;70.13;101848.75;5053355;28;45391;-75
2022/03/15 09:05:34;;;;;;;;;20.25;17.00;;;;;13.35;69.82;101854.09;5053767;28;45385;-74
2022/03/15 09:08:00;;;;;;;;;18.00;17.00;;;;;13.36;70.03;101858.53;5035626;28;46480;-72
2022/03/15 09:10:25;;;;;;;;;15.50;14.00;;;;;13.32;70.01;101852.41;5053750;28;45464;-74
2022/03/15 09:12:52;;;;;;;;;22.50;17.50;;;;;13.36;69.65;101856.72;5053808;28;45318;-73
2022/03/15 09:15:19;;;;;;;;;17.50;17.50;;;;;13.37;69.88;101863.84;5053807;28;45307;-73
2022/03/15 09:17:44;;;;;;;;;19.50;15.75;;;;;13.36;70.31;101862.09;5053253;28;45222;-73
2022/03/15 09:20:10;;;;;;;;;20.50;20.00;;;;;13.32;70.06;101856.91;5053082;28;45713;-71
2022/03/15 09:22:36;;;;;;;;;22.25;19.25;;;;;13.27;70.82;101856.22;5053412;28;45383;-75
2022/03/15 09:25:03;;;;;;;;;21.75;20.50;;;;;13.24;70.15;101846.44;5053996;28;45380;-73
2022/03/15 09:27:29;;;;;;;;;20.25;17.00;;;;;13.31;70.49;101864.09;5053370;28;46629;-74
2022/03/15 09:29:54;;;;;;;;;19.75;19.25;;;;;13.30;70.63;101859.66;5032095;28;47351;-74
2022/03/15 09:32:21;;;;;;;;;21.00;20.25;;;;;13.32;70.96;101859.59;5051578;28;45520;-73
2022/03/15 09:34:46;;;;;;;;;20.75;19.00;;;;;13.31;70.84;101856.03;5053505;28;45389;-74
2022/03/15 09:37:11;;;;;;;;;17.50;17.50;;;;;13.33;70.30;101851.47;5053218;28;45315;-72
2022/03/15 09:39:37;;;;;;;;;20.75;20.25;;;;;13.40;70.27;101847.59;5053388;28;45555;-73
2022/03/15 09:42:06;;;;;;;;;22.00;18.75;;;;;13.45;69.97;101847.38;5053202;28;45569;-73
2022/03/15 09:44:35;;;;;;;;;20.25;18.00;;;;;13.35;70.28;101827.16;5054582;28;45339;-72
2022/03/15 09:47:03;;;;;;;;;15.75;15.00;;;;;13.46;70.68;101847.31;5056750;28;45557;-73
2022/03/15 09:49:29;;;;;;;;;21.50;19.75;;;;;13.47;71.32;101841.00;5056509;28;45484;-74
2022/03/15 09:51:56;;;;;;;;;20.00;18.25;;;;;13.50;70.86;101840.00;5056404;28;45342;-73
2022/03/15 09:54:22;;;;;;;;;23.25;20.00;;;;;13.52;70.70;101830.06;5056859;28;45372;-72
2022/03/15 09:56:49;;;;;;;;;22.25;19.00;;;;;13.48;70.55;101812.25;5056059;28;46494;-74
2022/03/15 09:59:21;;;;;;;;;23.00;18.50;;;;;13.56;71.14;101829.84;5056786;28;45342;-73
2022/03/15 10:01:50;;;;;;;;;23.75;19.25;;;;;13.55;71.29;101827.22;5056703;28;45406;-73
2022/03/15 10:04:17;;;;;;;;;17.75;17.00;;;;;13.59;70.85;101828.84;5056390;28;45404;-73
2022/03/15 10:06:42;;;;;;;;;20.00;18.50;;;;;13.61;71.27;101819.75;5056543;28;45410;-74
2022/03/15 10:09:08;;;;;;;;;24.00;20.50;;;;;13.62;70.94;101824.19;5055921;28;45701;-73
2022/03/15 10:11:35;;;;;;;;;22.75;21.25;;;;;13.67;70.28;101834.81;5056623;28;45362;-74
2022/03/15 10:14:01;;;;;;;;;20.00;18.00;;;;;13.67;70.87;101825.84;5056484;28;45499;-73
2022/03/15 10:16:36;;;;;;;;;24.25;22.25;;;;;13.66;71.12;101814.19;5056734;28;45797;-75
2022/03/15 10:19:03;;;;;;;;;22.00;20.00;;;;;13.73;71.18;101823.75;5055863;28;46977;-73
2022/03/15 10:21:40;;;;;;;;;22.75;20.50;;;;;13.75;70.79;101834.50;5056177;28;45484;-74
2022/03/15 10:24:09;;;;;;;;;24.50;20.50;;;;;13.72;70.24;101819.31;5056010;28;45724;-72
2022/03/15 10:26:39;;;;;;;;;20.00;18.75;;;;;13.76;69.67;101825.47;5056443;28;45380;-72
2022/03/15 10:29:05;;;;;;;;;18.00;15.50;;;;;13.77;69.65;101822.72;5056243;28;46062;-74
2022/03/15 10:31:31;;;;;;;;;22.00;20.25;;;;;13.76;70.15;101822.78;5056177;28;45377;-75
2022/03/15 10:34:02;;;;;;;;;16.50;16.00;;;;;13.70;69.51;101806.84;5056092;28;45328;-73
2022/03/15 10:36:36;;;;;;;;;20.50;17.75;;;;;13.80;69.96;101821.69;5056064;28;45453;-72
2022/03/15 10:39:02;;;;;;;;;17.25;15.50;;;;;13.80;69.45;101816.28;5056263;28;45327;-74
2022/03/15 10:41:28;;;;;;;;;21.75;20.00;;;;;13.78;69.45;101818.19;5055760;28;45449;-75
2022/03/15 10:43:54;;;;;;;;;22.25;18.50;;;;;13.80;69.80;101817.16;5056234;28;45575;-74
2022/03/15 10:46:25;;;;;;;;;23.50;20.50;;;;;13.79;69.49;101817.22;5055673;28;45527;-73
2022/03/15 10:49:03;;;;;;;;;25.00;21.00;;;;;13.80;69.74;101810.91;5055884;28;46264;-74
2022/03/15 10:51:28;;;;;;;;;20.50;20.00;;;;;13.82;69.00;101807.22;5055461;28;45363;-74
2022/03/15 10:54:02;;;;;;;;;20.75;17.75;;;;;13.83;68.46;101810.78;5056140;28;45323;-74
2022/03/15 10:56:28;;;;;;;;;23.25;19.25;;;;;13.80;68.17;101797.44;5054436;28;45380;-72
2022/03/15 10:59:03;;;;;;;;;19.50;18.25;;;;;13.77;68.19;101790.38;5034155;28;47555;-74
2022/03/15 11:01:36;;;;;;;;;20.00;20.00;;;;;13.92;67.94;101810.41;5054781;28;45280;-74
2022/03/15 11:04:06;;;;;;;;;21.50;20.25;;;;;13.94;69.12;101804.00;5055623;28;45402;-72
2022/03/15 11:06:32;;;;;;;;;23.25;21.50;;;;;13.97;68.97;101798.47;5055261;28;45360;-72
2022/03/15 11:09:13;;;;;;;;;23.25;20.50;;;;;13.96;68.85;101791.31;5037270;28;45520;-73
2022/03/15 11:11:41;;;;;;;;;18.50;18.50;;;;;14.03;69.25;101805.44;5055847;28;45467;-73
2022/03/15 11:14:07;;;;;;;;;23.50;19.50;;;;;14.04;69.20;101793.66;5054222;28;45588;-73
2022/03/15 11:16:36;;;;;;;;;17.25;15.50;;;;;14.06;68.70;101789.09;5054832;28;45440;-76
2022/03/15 11:19:04;;;;;;;;;24.50;19.50;;;;;14.10;68.23;101782.63;5036104;28;46998;-75
2022/03/15 11:21:33;;;;;;;;;26.00;21.75;;;;;14.10;68.51;101777.25;5036827;28;46160;-74
2022/03/15 11:24:00;;;;;;;;;17.00;15.75;;;;;14.16;68.26;101792.28;5055005;28;45368;-73
2022/03/15 11:26:29;;;;;;;;;20.00;17.75;;;;;14.19;67.85;101786.75;5054341;28;45465;-73
2022/03/15 11:28:56;;;;;;;;;22.00;20.50;;;;;14.22;67.46;101781.19;5055319;28;45556;-74
2022/03/15 11:31:23;;;;;;;;;16.75;16.75;;;;;14.23;67.33;101777.56;5055415;28;45464;-73
2022/03/15 11:33:50;;;;;;;;;11.00;9.75;;;;;14.17;66.58;101769.75;5055270;28;45347;-78
2022/03/15 11:36:16;;;;;;;;;20.50;18.00;;;;;14.28;66.40;101787.22;5054950;28;45353;-77
2022/03/15 11:38:42;;;;;;;;;20.50;19.00;;;;;14.26;66.64;101777.44;5055480;28;46513;-76
2022/03/15 11:41:10;;;;;;;;;20.50;17.75;;;;;14.30;66.67;101782.59;5037516;28;45479;-76
2022/03/15 11:44:09;;;;;;;;;14.00;13.75;;;;;14.29;65.42;101771.91;5055804;28;45506;-73
2022/03/15 11:46:43;;;;;;;;;16.25;15.50;;;;;14.35;65.31;101782.41;5054653;28;45326;-72
2022/03/15 11:49:27;;;;;;;;;14.25;13.50;;;;;14.37;64.52;101777.84;5055050;28;46274;-74
2022/03/15 11:52:20;;;;;;;;;18.25;16.75;;;;;14.22;65.18;101749.72;5054812;28;45365;-75
2022/03/15 11:55:02;;;;;;;;;17.25;14.75;;;;;14.31;64.55;101762.78;5055234;28;45465;-75
2022/03/15 11:57:27;;;;;;;;;16.50;14.50;;;;;14.36;64.40;101770.69;5055148;28;45239;-73
2022/03/15 11:59:53;;;;;;;;;14.50;14.50;;;;;14.34;63.75;101761.78;5054835;28;45317;-74
2022/03/15 12:02:32;;;;;;;;;16.50;13.00;;;;;14.38;63.87;101766.06;5054862;28;45338;-74
2022/03/15 12:04:58;;;;;;;;;16.00;16.00;;;;;14.39;64.19;101757.94;5055120;28;45507;-73
2022/03/15 12:07:45;;;;;;;;;18.75;18.75;;;;;14.41;64.44;101751.63;5054222;28;45583;-74
2022/03/15 12:10:11;;;;;;;;;17.50;13.25;;;;;14.36;64.74;101747.28;5054901;28;45500;-75
2022/03/15 12:12:40;;;;;;;;;15.75;15.00;;;;;14.44;64.58;101746.97;5054405;28;45229;-76
2022/03/15 12:15:15;;;;;;;;;14.50;14.50;;;;;14.43;64.16;101742.50;5054705;28;45401;-75
2022/03/15 12:17:41;;;;;;;;;15.50;15.00;;;;;14.47;63.66;101745.94;5054383;28;46075;-75
2022/03/15 12:20:16;;;;;;;;;23.25;20.00;;;;;14.47;64.14;101746.81;5054061;28;46591;-74
2022/03/15 12:22:43;;;;;;;;;18.00;16.25;;;;;14.49;64.97;101744.03;5054987;28;45387;-73
2022/03/15 12:25:15;;;;;;;;;16.50;15.75;;;;;14.53;63.87;101749.25;5054436;28;45455;-73
2022/03/15 12:27:45;;;;;;;;;18.75;17.50;;;;;14.52;63.98;101744.78;5054811;28;45449;-73
2022/03/15 12:30:17;;;;;;;;;23.25;19.00;;;;;14.59;64.48;101750.78;5054462;28;45333;-74
2022/03/15 12:32:53;;;;;;;;;17.50;17.50;;;;;14.60;63.90;101748.00;5054200;28;45556;-75
2022/03/15 12:35:21;;;;;;;;;19.25;18.50;;;;;14.56;63.26;101740.09;5054310;28;45307;-74
2022/03/15 12:37:49;;;;;;;;;16.50;16.50;;;;;14.56;62.80;101734.72;5054582;28;45334;-75
2022/03/15 12:40:15;;;;;;;;;19.00;15.00;;;;;14.60;62.84;101742.59;5054198;28;47182;-75
2022/03/15 12:42:57;;;;;;;;;14.75;14.00;;;;;14.59;62.50;101737.28;5054716;28;45440;-74
2022/03/15 12:45:22;;;;;;;;;16.25;16.25;;;;;14.58;63.08;101736.41;5054283;28;45457;-73
2022/03/15 12:47:48;;;;;;;;;16.50;16.00;;;;;14.52;63.55;101717.81;5054258;28;45195;-75
2022/03/15 12:50:13;;;;;;;;;15.75;15.75;;;;;14.60;63.84;101733.63;5053968;28;46126;-75
2022/03/15 12:52:52;;;;;;;;;16.50;14.75;;;;;14.60;62.78;101728.25;5032609;28;45283;-73
2022/03/15 12:55:29;;;;;;;;;13.75;12.50;;;;;14.56;62.20;101713.13;5041311;28;45481;-74
2022/03/15 12:58:05;;;;;;;;;15.75;15.75;;;;;14.58;63.41;101708.53;5054008;28;45449;-73
2022/03/15 13:00:36;;;;;;;;;17.00;14.25;;;;;14.57;62.51;101704.09;5054558;28;46086;-75
2022/03/15 13:03:04;;;;;;;;;17.75;15.50;;;;;14.61;62.85;101711.09;5053994;28;45409;-73
2022/03/15 13:05:30;;;;;;;;;15.00;13.75;;;;;14.63;62.58;101711.91;5053807;28;45376;-73
2022/03/15 13:07:59;;;;;;;;;13.00;11.50;;;;;14.65;61.81;101710.00;5053755;28;45299;-73
2022/03/15 13:10:39;;;;;;;;;13.50;12.50;;;;;14.64;62.10;101714.50;5053871;28;45417;-74
2022/03/15 13:13:14;;;;;;;;;12.00;11.75;;;;;14.61;62.91;101709.28;5054352;28;45373;-74
2022/03/15 13:16:03;;;;;;;;;15.50;12.00;;;;;14.57;63.28;101704.97;5054188;28;45310;-74
2022/03/15 13:18:31;;;;;;;;;17.00;12.75;;;;;14.62;63.20;101697.53;5053827;28;45335;-73
2022/03/15 13:21:01;;;;;;;;;16.75;16.25;;;;;14.62;63.48;101699.38;5056794;28;45275;-73
2022/03/15 13:23:28;;;;;;;;;23.75;19.00;;;;;14.59;64.30;101688.69;5057577;28;45542;-72
2022/03/15 13:25:58;;;;;;;;;22.25;21.25;;;;;14.57;64.48;101698.69;5057510;28;45350;-74
2022/03/15 13:28:23;;;;;;;;;21.50;19.00;;;;;14.59;64.47;101691.41;5057197;28;45488;-73
2022/03/15 13:30:52;;;;;;;;;24.25;23.25;;;;;14.57;64.97;101686.06;5057234;28;45449;-74
2022/03/15 13:33:38;;;;;;;;;21.50;19.25;;;;;14.47;64.52;101673.06;5057096;28;45497;-74
2022/03/15 13:36:04;;;;;;;;;21.50;18.50;;;;;14.51;64.75;101689.06;5057253;28;45472;-74
2022/03/15 13:38:34;;;;;;;;;20.75;17.75;;;;;14.43;64.83;101672.38;5056896;28;46064;-74
2022/03/15 13:41:01;;;;;;;;;22.25;19.00;;;;;14.48;64.84;101678.41;5056997;28;46190;-73
2022/03/15 13:43:31;;;;;;;;;18.75;18.75;;;;;14.47;64.99;101679.34;5057031;28;45214;-73
2022/03/15 13:45:56;;;;;;;;;17.25;17.25;;;;;14.43;64.84;101663.41;5040361;28;45456;-74
2022/03/15 13:48:31;;;;;;;;;20.75;19.75;;;;;14.49;65.33;101672.06;5056855;28;45571;-74
2022/03/15 13:51:06;;;;;;;;;20.75;19.75;;;;;14.51;64.72;101672.88;5056825;28;46326;-74
2022/03/15 13:53:33;;;;;;;;;20.00;17.00;;;;;14.51;64.53;101667.47;5035852;28;45490;-74
2022/03/15 13:56:08;;;;;;;;;17.50;16.00;;;;;14.49;64.14;101663.09;5032258;28;45432;-74
2022/03/15 13:58:34;;;;;;;;;22.25;19.75;;;;;14.44;64.52;101660.63;5035230;28;46116;-73
2022/03/15 14:01:07;;;;;;;;;20.00;18.50;;;;;14.45;65.02;101656.09;5050872;28;45987;-75
2022/03/15 14:03:34;;;;;;;;;20.50;20.50;;;;;14.38;65.28;101652.78;5056922;28;45314;-75
2022/03/15 14:06:07;;;;;;;;;21.75;17.50;;;;;14.36;64.79;101644.78;5056637;28;45327;-75
2022/03/15 14:08:48;;;;;;;;;18.00;16.75;;;;;14.38;65.00;101650.97;5056939;28;45301;-75
2022/03/15 14:11:14;;;;;;;;;19.25;18.25;;;;;14.34;65.05;101646.66;5056502;28;45365;-74
2022/03/15 14:13:55;;;;;;;;;29.50;21.00;;;;;14.37;65.51;101661.84;5056731;28;45411;-74
2022/03/15 14:16:32;;;;;;;;;24.25;23.00;;;;;14.30;65.69;101658.53;5056899;28;45181;-74
2022/03/15 14:19:01;;;;;;;;;20.00;20.00;;;;;14.29;65.91;101664.88;5056246;28;45353;-74
2022/03/15 14:21:27;;;;;;;;;26.75;24.25;;;;;14.26;66.24;101669.53;5034557;28;47253;-74
2022/03/15 14:23:57;;;;;;;;;29.00;22.75;;;;;14.20;66.51;101665.31;5051443;28;45367;-71
2022/03/15 14:26:28;;;;;;;;;32.25;26.00;;;;;14.14;66.74;101678.19;5056672;28;45418;-74
2022/03/15 14:29:00;;;;;;;;;27.75;26.75;;;;;14.13;66.98;101671.03;5056410;28;45357;-75
2022/03/15 14:31:30;;;;;;;;;31.25;27.00;;;;;14.13;66.97;101674.63;5056225;28;45723;-74
2022/03/15 14:34:06;;;;;;;;;35.25;27.50;;;;;14.16;67.01;101673.59;5056241;28;45331;-75
2022/03/15 14:36:34;;;;;;;;;34.00;31.00;;;;;14.14;67.13;101662.88;5056170;28;45512;-74
2022/03/15 14:39:14;;;;;;;;;31.00;28.25;;;;;14.15;67.25;101653.84;5055991;28;45565;-75
2022/03/15 14:41:42;;;;;;;;;27.50;27.50;;;;;14.13;67.04;101644.06;5056009;28;45376;-74
2022/03/15 14:44:09;;;;;;;;;36.00;30.25;;;;;14.21;66.94;101656.25;5056496;28;45491;-74
2022/03/15 14:46:38;;;;;;;;;32.00;30.25;;;;;14.24;67.42;101656.13;5055980;28;45375;-75
2022/03/15 14:49:07;;;;;;;;;30.75;26.75;;;;;14.26;67.41;101650.66;5054583;28;46294;-75
2022/03/15 14:51:33;;;;;;;;;31.75;26.50;;;;;14.19;67.23;101644.69;5055727;28;46217;-74
2022/03/15 14:54:00;;;;;;;;;35.50;32.00;;;;;14.25;67.89;101644.41;5056017;28;45455;-74
2022/03/15 14:56:26;;;;;;;;;37.50;33.25;;;;;14.19;67.36;101630.31;5055836;28;45397;-71
2022/03/15 14:58:52;;;;;;;;;30.00;27.50;;;;;14.22;67.20;101633.75;5056006;28;45350;-74
2022/03/15 15:01:17;;;;;;;;;28.50;27.50;;;;;14.32;67.30;101634.19;5055817;28;46243;-74
2022/03/15 15:03:45;;;;;;;;;26.25;25.00;;;;;14.33;67.17;101638.63;5056051;28;45391;-73
2022/03/15 15:06:13;;;;;;;;;25.00;24.00;;;;;14.37;67.38;101635.72;5055718;28;46394;-74
2022/03/15 15:08:38;;;;;;;;;23.00;21.00;;;;;14.41;67.35;101631.09;5055840;28;45631;-73
2022/03/15 15:11:04;;;;;;;;;24.25;24.25;;;;;14.44;66.85;101625.56;5055680;28;45462;-73
2022/03/15 15:13:29;;;;;;;;;29.50;25.00;;;;;14.48;66.64;101624.44;5055775;28;45488;-74
2022/03/15 15:15:55;;;;;;;;;25.50;23.00;;;;;14.52;67.12;101620.66;5055763;28;45381;-74
2022/03/15 15:18:23;;;;;;;;;34.25;30.00;;;;;14.57;66.72;101628.53;5055432;28;45323;-74
2022/03/15 15:20:49;;;;;;;;;32.00;27.75;;;;;14.63;66.96;101628.25;5055339;28;46192;-74
2022/03/15 15:23:15;;;;;;;;;26.25;21.75;;;;;14.64;66.65;101628.16;5055668;28;45250;-73
2022/03/15 15:25:41;;;;;;;;;26.50;26.50;;;;;14.68;66.63;101636.97;5055655;28;45505;-74
2022/03/15 15:28:14;;;;;;;;;21.50;21.25;;;;;14.64;66.44;101625.44;5055668;28;45420;-75
2022/03/15 15:30:45;;;;;;;;;27.00;26.00;;;;;14.68;66.12;101635.16;5055286;28;46444;-74
2022/03/15 15:33:11;;;;;;;;;18.00;18.00;;;;;14.67;66.16;101630.72;5055359;28;45345;-73
2022/03/15 15:35:39;;;;;;;;;23.50;21.00;;;;;14.70;66.21;101635.09;5055340;28;45383;-74
2022/03/15 15:38:08;;;;;;;;;22.25;19.75;;;;;14.59;65.73;101613.13;5055311;28;45507;-73
2022/03/15 15:40:35;;;;;;;;;20.00;19.25;;;;;14.62;66.02;101626.50;5055238;28;45338;-73
2022/03/15 15:43:04;;;;;;;;;5.00;2.50;;;;;14.57;66.35;101632.09;5054699;28;45301;-73
2022/03/15 15:45:30;;;;;;;;;16.50;13.50;;;;;14.58;66.17;101639.25;5055784;28;45182;-75
2022/03/15 15:47:56;;;;;;;;;16.00;14.25;;;;;14.52;66.40;101628.75;5055137;28;45212;-74
2022/03/15 15:50:21;;;;;;;;;14.00;14.00;;;;;14.54;66.00;101628.69;5055763;28;45335;-70
2022/03/15 15:52:53;;;;;;;;;16.25;12.50;;;;;14.52;66.35;101627.88;5055310;28;45318;-72
2022/03/15 15:55:18;;;;;;;;;15.75;14.00;;;;;14.47;66.18;101624.50;5055639;28;45385;-73
2022/03/15 15:57:44;;;;;;;;;14.50;12.50;;;;;14.42;66.34;101619.34;5055198;28;45366;-74
2022/03/15 16:00:11;;;;;;;;;21.00;13.50;;;;;14.53;66.49;101626.94;5055139;28;45337;-74
2022/03/15 16:02:41;;;;;;;;;17.00;10.75;;;;;14.53;66.49;101630.50;5054762;28;45254;-71
2022/03/15 16:05:13;;;;;;;;;12.75;12.25;;;;;14.54;66.16;101634.97;5055038;28;45445;-72
2022/03/15 16:07:45;;;;;;;;;11.50;11.25;;;;;14.57;66.01;101639.31;5054907;28;46158;-75
2022/03/15 16:10:15;;;;;;;;;18.25;14.75;;;;;14.59;66.01;101637.44;5055038;28;45313;-74
2022/03/15 16:12:46;;;;;;;;;13.00;11.25;;;;;14.60;66.02;101640.06;5054841;28;45332;-73
2022/03/15 16:15:15;;;;;;;;;13.50;11.00;;;;;14.63;65.72;101644.44;5055218;28;45296;-73
2022/03/15 16:17:43;;;;;;;;;12.25;10.00;;;;;14.64;65.73;101640.75;5054509;28;45572;-75
2022/03/15 16:20:10;;;;;;;;;4.50;4.50;;;;;14.59;65.68;101640.13;5054595;28;46318;-75
2022/03/15 16:22:37;;;;;;;;;13.75;9.25;;;;;14.60;65.55;101633.78;5054998;28;45338;-74
2022/03/15 16:25:04;;;;;;;;;14.00;9.75;;;;;14.63;65.53;101637.19;5055138;28;45250;-75
2022/03/15 16:27:30;;;;;;;;;9.25;8.25;;;;;14.61;65.29;101652.59;5054688;28;45349;-74
2022/03/15 16:29:56;;;;;;;;;10.00;10.00;;;;;14.61;65.44;101654.44;5054475;28;46214;-74
2022/03/15 16:32:25;;;;;;;;;11.75;9.50;;;;;14.62;65.77;101650.78;5054314;28;45318;-74
2022/03/15 16:34:51;;;;;;;;;9.75;9.75;;;;;14.61;65.35;101654.44;5053477;28;45467;-72
2022/03/15 16:37:17;;;;;;;;;15.75;11.00;;;;;14.62;65.67;101651.66;5053370;28;45767;-74
2022/03/15 16:39:43;;;;;;;;;11.25;11.25;;;;;14.64;65.46;101659.66;5054590;28;46680;-73
2022/03/15 16:42:12;;;;;;;;;10.25;10.00;;;;;14.65;65.33;101661.41;5054533;28;45334;-74
2022/03/15 16:44:37;;;;;;;;;8.75;8.75;;;;;14.66;65.72;101655.94;5054345;28;45413;-72